createdAt,value
2018-06-07T00:01:00.158Z,15.90
2018-06-07T00:03:27.503Z,14.43
2018-06-07T00:05:54.831Z,15.57
2018-06-07T00:08:22.299Z,15.80
2018-06-07T00:10:49.621Z,18.13
2018-06-07T00:13:17.022Z,18.17
2018-06-07T00:15:44.382Z,17.57
2018-06-07T00:18:11.715Z,15.13
2018-06-07T00:20:39.279Z,16.10
2018-06-07T00:23:06.607Z,15.57
2018-06-07T00:25:34.009Z,16.63
2018-06-07T00:28:01.315Z,16.57
2018-06-07T00:30:28.643Z,16.33
2018-06-07T00:33:02.602Z,18.47
2018-06-07T00:35:35.220Z,16.97
2018-06-07T00:38:02.545Z,16.40
2018-06-07T00:40:29.882Z,16.80
2018-06-07T00:42:57.281Z,16.30
2018-06-07T00:45:24.627Z,18.70
2018-06-07T00:47:52.031Z,16.53
2018-06-07T00:50:19.464Z,15.93
2018-06-07T00:52:46.791Z,16.20
2018-06-07T00:55:14.117Z,16.87
2018-06-07T00:57:41.573Z,28.37
2018-06-07T01:00:08.910Z,20.10
2018-06-07T01:02:36.240Z,18.37
2018-06-07T01:05:03.542Z,17.27
2018-06-07T01:07:30.873Z,17.13
2018-06-07T01:09:58.191Z,16.60
2018-06-07T01:12:25.529Z,18.73
2018-06-07T01:14:52.865Z,15.23
2018-06-07T01:17:20.315Z,16.63
2018-06-07T01:19:47.659Z,15.93
2018-06-07T01:22:14.969Z,18.83
2018-06-07T01:24:42.337Z,15.93
2018-06-07T01:27:09.724Z,18.20
2018-06-07T01:29:42.707Z,15.23
2018-06-07T01:32:39.119Z,15.00
2018-06-07T01:35:06.467Z,18.57
2018-06-07T01:37:33.796Z,14.43
2018-06-07T01:40:01.384Z,16.30
2018-06-07T01:42:28.759Z,14.73
2018-06-07T01:44:56.123Z,16.03
2018-06-07T01:47:23.435Z,13.43
2018-06-07T01:49:50.787Z,13.10
2018-06-07T01:52:18.168Z,11.80
2018-06-07T01:54:45.562Z,11.53
2018-06-07T01:57:12.817Z,14.13
2018-06-07T01:59:40.136Z,14.57
2018-06-07T02:02:07.484Z,16.17
2018-06-07T02:04:34.787Z,14.17
2018-06-07T02:07:02.121Z,17.60
2018-06-07T02:09:29.440Z,14.50
2018-06-07T02:11:56.769Z,15.53
2018-06-07T02:14:24.106Z,13.77
2018-06-07T02:16:51.484Z,14.03
2018-06-07T02:19:18.820Z,15.37
2018-06-07T02:21:46.139Z,16.30
2018-06-07T02:24:13.464Z,17.63
2018-06-07T02:26:40.915Z,12.30
2018-06-07T02:29:08.290Z,11.43
2018-06-07T02:31:35.596Z,13.27
2018-06-07T02:34:02.918Z,17.83
2018-06-07T02:36:30.243Z,18.10
2018-06-07T02:38:57.576Z,16.60
2018-06-07T02:41:24.897Z,15.40
2018-06-07T02:43:52.323Z,11.30
2018-06-07T02:46:19.639Z,12.50
2018-06-07T02:48:46.956Z,7.57
2018-06-07T02:51:14.244Z,9.27
2018-06-07T02:53:41.656Z,12.73
2018-06-07T02:56:09.183Z,14.83
2018-06-07T02:58:36.511Z,18.10
2018-06-07T03:01:03.831Z,16.57
2018-06-07T03:03:31.159Z,19.33
2018-06-07T03:05:58.592Z,17.70
2018-06-07T03:08:26.016Z,21.93
2018-06-07T03:10:53.396Z,23.20
2018-06-07T03:13:20.805Z,22.40
2018-06-07T03:15:48.204Z,20.90
2018-06-07T03:18:15.507Z,22.47
2018-06-07T03:20:42.926Z,20.70
2018-06-07T03:23:10.365Z,20.83
2018-06-07T03:25:37.775Z,21.43
2018-06-07T03:28:05.104Z,21.67
2018-06-07T03:30:32.407Z,21.77
2018-06-07T03:32:59.756Z,21.20
2018-06-07T03:35:27.127Z,22.33
2018-06-07T03:37:54.487Z,19.90
2018-06-07T03:40:21.801Z,22.33
2018-06-07T03:42:49.215Z,25.73
2018-06-07T03:45:16.550Z,21.60
2018-06-07T03:47:43.880Z,21.83
2018-06-07T03:50:11.209Z,23.47
2018-06-07T03:52:38.564Z,24.37
2018-06-07T03:55:05.863Z,21.60
2018-06-07T03:57:33.196Z,21.77
2018-06-07T04:00:00.688Z,21.57
2018-06-07T04:02:28.077Z,24.37
2018-06-07T04:04:55.375Z,22.07
2018-06-07T04:07:22.811Z,20.27
2018-06-07T04:09:50.188Z,24.00
2018-06-07T04:12:17.528Z,22.67
2018-06-07T04:14:45.013Z,23.53
2018-06-07T04:17:12.355Z,20.90
2018-06-07T04:19:39.722Z,20.43
2018-06-07T04:22:07.047Z,20.57
2018-06-07T04:24:34.386Z,20.70
2018-06-07T04:27:01.835Z,21.90
2018-06-07T04:29:29.149Z,21.47
2018-06-07T04:31:56.466Z,19.73
2018-06-07T04:34:23.820Z,24.20
2018-06-07T04:36:51.211Z,22.27
2018-06-07T04:39:18.534Z,20.20
2018-06-07T04:41:45.893Z,20.67
2018-06-07T04:44:13.262Z,19.53
2018-06-07T04:46:40.724Z,19.17
2018-06-07T04:49:08.061Z,20.80
2018-06-07T04:51:35.408Z,21.07
2018-06-07T04:54:02.727Z,21.30
2018-06-07T04:56:30.125Z,19.87
2018-06-07T04:58:57.661Z,21.80
2018-06-07T05:01:25.024Z,20.27
2018-06-07T05:03:52.565Z,23.53
2018-06-07T05:06:19.941Z,20.83
2018-06-07T05:08:47.307Z,20.70
2018-06-07T05:11:14.621Z,20.17
2018-06-07T05:13:41.959Z,19.27
2018-06-07T05:16:09.344Z,20.27
2018-06-07T05:18:36.716Z,19.50
2018-06-07T05:21:10.815Z,21.10
2018-06-07T05:23:38.200Z,21.07
2018-06-07T05:26:05.627Z,20.20
2018-06-07T05:28:33.003Z,18.30
2018-06-07T05:31:01.388Z,18.77
2018-06-07T05:33:28.718Z,20.77
2018-06-07T05:35:56.051Z,18.70
2018-06-07T05:38:23.423Z,20.30
2018-06-07T05:40:50.751Z,18.90
2018-06-07T05:43:18.197Z,23.17
2018-06-07T05:45:45.532Z,18.97
2018-06-07T05:48:13.545Z,18.90
2018-06-07T05:50:41.043Z,17.93
2018-06-07T05:53:08.678Z,22.70
2018-06-07T05:55:36.015Z,16.97
2018-06-07T05:58:03.472Z,16.70
2018-06-07T06:00:30.801Z,16.90
2018-06-07T06:02:58.227Z,15.63
2018-06-07T06:05:25.623Z,15.43
2018-06-07T06:07:52.910Z,16.50
2018-06-07T06:10:20.363Z,14.97
2018-06-07T06:12:47.727Z,21.70
2018-06-07T06:15:15.071Z,15.77
2018-06-07T06:17:42.471Z,14.70
2018-06-07T06:20:09.874Z,16.00
2018-06-07T06:22:37.199Z,15.03
2018-06-07T06:25:04.515Z,14.27
2018-06-07T06:27:31.889Z,14.97
2018-06-07T06:29:59.207Z,13.73
2018-06-07T06:32:26.568Z,14.17
2018-06-07T06:34:53.864Z,13.57
2018-06-07T06:37:24.552Z,13.47
2018-06-07T06:39:51.855Z,13.27
2018-06-07T06:42:19.201Z,14.43
2018-06-07T06:44:46.495Z,14.30
2018-06-07T06:47:13.795Z,13.00
2018-06-07T06:49:41.128Z,12.07
2018-06-07T06:52:08.462Z,12.30
2018-06-07T06:54:35.820Z,12.20
2018-06-07T06:57:03.133Z,12.33
2018-06-07T06:59:30.475Z,12.57
2018-06-07T07:01:57.807Z,16.23
2018-06-07T07:04:25.159Z,13.80
2018-06-07T07:06:52.595Z,12.23
2018-06-07T07:09:20.073Z,13.40
2018-06-07T07:11:47.363Z,13.60
2018-06-07T07:14:14.664Z,13.10
2018-06-07T07:16:41.999Z,13.27
2018-06-07T07:19:09.387Z,14.27
2018-06-07T07:21:36.859Z,12.90
2018-06-07T07:24:04.177Z,14.00
2018-06-07T07:26:31.537Z,15.50
2018-06-07T07:28:58.956Z,15.77
2018-06-07T07:31:26.294Z,17.50
2018-06-07T07:33:53.608Z,15.90
2018-06-07T07:36:21.021Z,15.93
2018-06-07T07:38:48.382Z,17.50
2018-06-07T07:41:15.828Z,16.37
2018-06-07T07:43:43.311Z,17.00
2018-06-07T07:46:10.660Z,16.60
2018-06-07T07:48:37.980Z,15.00
2018-06-07T07:51:05.304Z,17.00
2018-06-07T07:53:32.700Z,15.77
2018-06-07T07:56:00.216Z,17.40
2018-06-07T07:58:27.568Z,18.53
2018-06-07T08:00:54.889Z,19.00
2018-06-07T08:03:22.247Z,16.03
2018-06-07T08:05:49.715Z,16.33
2018-06-07T08:08:17.079Z,18.90
2018-06-07T08:10:44.403Z,18.90
2018-06-07T08:13:11.719Z,17.87
2018-06-07T08:15:39.079Z,19.03
2018-06-07T08:18:06.473Z,19.97
2018-06-07T08:20:34.004Z,17.67
2018-06-07T08:23:01.379Z,17.30
2018-06-07T08:25:28.707Z,21.33
2018-06-07T08:27:56.083Z,19.67
2018-06-07T08:30:23.408Z,18.83
2018-06-07T08:32:50.747Z,19.80
2018-06-07T08:35:18.075Z,21.60
2018-06-07T08:37:45.399Z,17.80
2018-06-07T08:40:12.777Z,18.43
2018-06-07T08:42:40.113Z,21.70
2018-06-07T08:45:07.450Z,18.70
2018-06-07T08:47:34.800Z,20.47
2018-06-07T08:50:02.316Z,20.43
2018-06-07T08:52:29.784Z,18.50
2018-06-07T08:54:58.019Z,21.47
2018-06-07T08:57:25.475Z,20.63
2018-06-07T08:59:52.793Z,23.67
2018-06-07T09:02:20.279Z,21.50
2018-06-07T09:04:47.643Z,20.37
2018-06-07T09:07:15.071Z,20.63
2018-06-07T09:09:42.416Z,19.03
2018-06-07T09:12:09.813Z,20.53
2018-06-07T09:14:37.243Z,22.50
2018-06-07T09:17:04.837Z,23.30
2018-06-07T09:19:32.151Z,19.67
2018-06-07T09:21:59.628Z,21.40
2018-06-07T09:24:26.991Z,23.03
2018-06-07T09:26:54.337Z,21.37
2018-06-07T09:29:28.447Z,20.40
2018-06-07T09:31:55.907Z,20.87
2018-06-07T09:34:23.283Z,20.93
2018-06-07T09:36:50.579Z,21.27
2018-06-07T09:39:18.166Z,21.20
2018-06-07T09:41:45.744Z,23.60
2018-06-07T09:44:13.066Z,21.30
2018-06-07T09:46:40.453Z,22.67
2018-06-07T09:49:07.770Z,26.53
2018-06-07T09:51:35.267Z,18.77
2018-06-07T09:54:02.621Z,22.23
2018-06-07T09:56:30.183Z,20.97
2018-06-07T09:58:57.505Z,20.43
2018-06-07T10:01:24.895Z,22.27
2018-06-07T10:03:52.246Z,23.50
2018-06-07T10:06:19.575Z,24.20
2018-06-07T10:08:46.939Z,23.00
2018-06-07T10:11:14.347Z,22.20
2018-06-07T10:13:41.710Z,24.00
2018-06-07T10:16:09.095Z,23.77
2018-06-07T10:18:36.459Z,24.50
2018-06-07T10:21:03.842Z,22.43
2018-06-07T10:23:31.182Z,21.00
2018-06-07T10:25:58.525Z,22.70
2018-06-07T10:28:25.987Z,20.63
2018-06-07T10:30:53.336Z,19.60
2018-06-07T10:33:20.851Z,22.23
2018-06-07T10:35:48.345Z,22.30
2018-06-07T10:38:15.692Z,22.53
2018-06-07T10:40:43.121Z,23.20
2018-06-07T10:43:10.399Z,21.43
2018-06-07T10:45:37.767Z,22.37
2018-06-07T10:48:05.130Z,22.17
2018-06-07T10:50:32.493Z,21.10
2018-06-07T10:52:59.914Z,22.20
2018-06-07T10:55:27.482Z,22.13
2018-06-07T10:57:54.843Z,25.47
2018-06-07T11:00:22.266Z,20.87
2018-06-07T11:02:49.647Z,21.83
2018-06-07T11:05:17.097Z,22.87
2018-06-07T11:07:44.478Z,24.67
2018-06-07T11:10:11.814Z,23.17
2018-06-07T11:12:39.168Z,22.60
2018-06-07T11:15:06.531Z,21.97
2018-06-07T11:17:33.980Z,27.17
2018-06-07T11:20:01.344Z,24.50
2018-06-07T11:22:28.722Z,27.80
2018-06-07T11:24:56.185Z,28.07
2018-06-07T11:27:23.590Z,31.17
2018-06-07T11:29:50.918Z,29.30
2018-06-07T11:32:18.304Z,25.03
2018-06-07T11:34:45.885Z,28.30
2018-06-07T11:37:13.336Z,28.07
2018-06-07T11:39:40.763Z,28.10
2018-06-07T11:42:08.214Z,28.80
2018-06-07T11:44:35.576Z,26.10
2018-06-07T11:47:02.931Z,26.03
2018-06-07T11:49:30.340Z,26.17
2018-06-07T11:51:57.733Z,27.57
2018-06-07T11:54:25.102Z,29.83
2018-06-07T11:56:52.475Z,26.77
2018-06-07T11:59:19.916Z,26.57
2018-06-07T12:01:47.454Z,29.93
2018-06-07T12:04:14.712Z,27.43
2018-06-07T12:06:42.092Z,28.90
2018-06-07T12:09:09.543Z,27.23
2018-06-07T12:11:36.917Z,26.03
2018-06-07T12:14:04.459Z,25.77
2018-06-07T12:16:31.846Z,29.37
2018-06-07T12:18:59.193Z,24.23
2018-06-07T12:21:26.537Z,25.37
2018-06-07T12:23:54.071Z,28.47
2018-06-07T12:26:21.427Z,29.80
2018-06-07T12:28:48.827Z,25.57
2018-06-07T12:31:16.144Z,26.63
2018-06-07T12:33:43.620Z,26.43
2018-06-07T12:36:10.943Z,32.03
2018-06-07T12:38:38.305Z,26.80
2018-06-07T12:41:05.784Z,27.20
2018-06-07T12:43:33.112Z,25.93
2018-06-07T12:46:00.494Z,26.57
2018-06-07T12:48:27.826Z,28.23
2018-06-07T12:50:55.279Z,27.43
2018-06-07T12:53:22.778Z,30.80
2018-06-07T12:55:50.113Z,27.77
2018-06-07T12:58:17.460Z,26.70
2018-06-07T13:00:44.800Z,24.20
2018-06-07T13:03:12.339Z,26.63
2018-06-07T13:05:39.721Z,25.97
2018-06-07T13:08:07.186Z,24.87
2018-06-07T13:10:34.494Z,27.33
2018-06-07T13:13:01.881Z,28.87
2018-06-07T13:15:29.243Z,25.20
2018-06-07T13:17:56.583Z,23.40
2018-06-07T13:20:23.939Z,23.87
2018-06-07T13:22:51.315Z,26.67
2018-06-07T13:25:18.655Z,23.70
2018-06-07T13:27:46.226Z,29.23
2018-06-07T13:30:13.623Z,27.23
2018-06-07T13:32:40.915Z,23.23
2018-06-07T13:35:08.380Z,20.47
2018-06-07T13:37:35.842Z,23.40
2018-06-07T13:40:03.223Z,20.77
2018-06-07T13:42:30.627Z,23.50
2018-06-07T13:44:58.095Z,24.70
2018-06-07T13:47:25.464Z,26.90
2018-06-07T13:49:52.807Z,26.50
2018-06-07T13:52:20.168Z,22.17
2018-06-07T13:54:47.728Z,22.17
2018-06-07T13:57:15.094Z,19.13
2018-06-07T13:59:42.511Z,22.60
2018-06-07T14:02:10.126Z,24.20
2018-06-07T14:04:37.435Z,21.50
2018-06-07T14:07:04.824Z,20.17
2018-06-07T14:09:32.449Z,19.73
2018-06-07T14:11:59.829Z,18.43
2018-06-07T14:14:27.184Z,20.87
2018-06-07T14:16:54.729Z,16.80
2018-06-07T14:19:22.148Z,16.57
2018-06-07T14:21:49.567Z,19.10
2018-06-07T14:24:17.128Z,13.20
2018-06-07T14:26:44.455Z,15.20
2018-06-07T14:29:11.883Z,15.27
2018-06-07T14:31:39.263Z,17.53
2018-06-07T14:34:06.608Z,21.13
2018-06-07T14:36:34.060Z,19.67
2018-06-07T14:39:01.428Z,17.27
2018-06-07T14:41:28.851Z,18.87
2018-06-07T14:43:56.247Z,21.80
2018-06-07T14:46:23.695Z,21.43
2018-06-07T14:48:51.085Z,17.77
2018-06-07T14:51:18.486Z,15.27
2018-06-07T14:53:45.872Z,19.10
2018-06-07T14:56:13.319Z,17.67
2018-06-07T14:58:40.712Z,18.30
2018-06-07T15:01:08.040Z,22.17
2018-06-07T15:03:35.363Z,21.83
2018-06-07T15:06:02.741Z,18.10
2018-06-07T15:08:30.076Z,22.90
2018-06-07T15:10:57.455Z,26.90
2018-06-07T15:13:24.787Z,19.10
2018-06-07T15:15:52.150Z,19.33
2018-06-07T15:18:19.467Z,21.73
2018-06-07T15:20:46.844Z,20.60
2018-06-07T15:23:14.205Z,18.10
2018-06-07T15:25:41.619Z,27.13
2018-06-07T15:28:09.109Z,24.40
2018-06-07T15:30:36.483Z,26.80
2018-06-07T15:33:03.854Z,26.73
2018-06-07T15:35:31.208Z,25.47
2018-06-07T15:37:58.746Z,28.37
2018-06-07T15:40:26.274Z,22.43
2018-06-07T15:42:53.691Z,26.50
2018-06-07T15:45:21.028Z,23.30
2018-06-07T15:47:48.464Z,24.00
2018-06-07T15:50:15.914Z,23.90
2018-06-07T15:52:43.287Z,23.23
2018-06-07T15:55:10.821Z,28.33
2018-06-07T15:57:38.326Z,25.37
2018-06-07T16:00:05.783Z,28.03
2018-06-07T16:02:33.119Z,27.20
2018-06-07T16:05:00.483Z,26.60
2018-06-07T16:07:27.986Z,25.73
2018-06-07T16:09:55.408Z,24.97
2018-06-07T16:12:22.864Z,24.33
2018-06-07T16:14:50.217Z,23.67
2018-06-07T16:17:17.556Z,21.70
2018-06-07T16:19:44.919Z,21.67
2018-06-07T16:22:12.500Z,18.93
2018-06-07T16:24:39.978Z,21.63
2018-06-07T16:27:07.393Z,19.93
2018-06-07T16:29:34.756Z,19.30
2018-06-07T16:32:02.120Z,18.30
2018-06-07T16:34:29.468Z,17.63
2018-06-07T16:36:56.899Z,15.37
2018-06-07T16:39:24.288Z,15.97
2018-06-07T16:41:51.870Z,16.27
2018-06-07T16:44:19.259Z,17.03
2018-06-07T16:46:46.627Z,18.10
2018-06-07T16:49:13.946Z,18.47
2018-06-07T16:51:41.545Z,16.63
2018-06-07T16:54:08.925Z,8.30
2018-06-07T16:56:36.415Z,9.00
2018-06-07T16:59:03.858Z,7.50
2018-06-07T17:01:31.190Z,8.00
2018-06-07T17:03:58.516Z,10.23
2018-06-07T17:06:25.915Z,9.90
2018-06-07T17:08:53.235Z,9.43
2018-06-07T17:11:20.616Z,10.07
2018-06-07T17:13:48.072Z,11.63
2018-06-07T17:16:15.566Z,10.93
2018-06-07T17:18:42.920Z,9.73
2018-06-07T17:21:10.407Z,11.20
2018-06-07T17:23:37.795Z,11.93
2018-06-07T17:26:05.303Z,14.87
2018-06-07T17:28:32.704Z,14.57
2018-06-07T17:31:00.051Z,15.57
2018-06-07T17:33:27.467Z,20.27
2018-06-07T17:35:55.024Z,19.70
2018-06-07T17:38:23.268Z,16.80
2018-06-07T17:40:50.647Z,17.07
2018-06-07T17:43:18.116Z,18.37
2018-06-07T17:45:45.495Z,20.27
2018-06-07T17:48:12.959Z,18.77
2018-06-07T17:50:40.310Z,16.57
2018-06-07T17:53:07.691Z,17.30
2018-06-07T17:55:35.081Z,23.00
2018-06-07T17:58:02.688Z,16.10
2018-06-07T18:00:30.025Z,22.70
2018-06-07T18:02:57.366Z,21.53
2018-06-07T18:05:24.738Z,19.60
2018-06-07T18:07:52.230Z,21.33
2018-06-07T18:10:19.621Z,20.43
2018-06-07T18:12:47.077Z,25.03
2018-06-07T18:15:14.519Z,19.00
2018-06-07T18:17:41.872Z,20.03
2018-06-07T18:20:09.256Z,18.80
2018-06-07T18:22:36.608Z,18.40
2018-06-07T18:25:04.023Z,21.97
2018-06-07T18:27:31.367Z,27.17
2018-06-07T18:29:58.706Z,16.87
2018-06-07T18:32:26.052Z,18.73
2018-06-07T18:34:53.384Z,19.20
2018-06-07T18:37:20.912Z,21.17
2018-06-07T18:39:48.287Z,18.17
2018-06-07T18:42:15.664Z,16.67
2018-06-07T18:44:43.084Z,16.87
2018-06-07T18:47:10.477Z,18.40
2018-06-07T18:49:37.884Z,19.37
2018-06-07T18:52:05.272Z,15.53
2018-06-07T18:54:32.604Z,17.57
2018-06-07T18:56:59.995Z,16.37
2018-06-07T18:59:27.351Z,17.23
2018-06-07T19:01:54.710Z,17.77
2018-06-07T19:04:22.288Z,22.07
2018-06-07T19:06:49.664Z,19.67
2018-06-07T19:09:22.284Z,21.60
2018-06-07T19:11:49.841Z,22.40
2018-06-07T19:14:22.476Z,23.33
2018-06-07T19:16:49.851Z,21.73
2018-06-07T19:19:22.616Z,21.43
2018-06-07T19:21:49.928Z,21.00
2018-06-07T19:24:17.305Z,21.80
2018-06-07T19:26:50.013Z,21.33
2018-06-07T19:29:17.380Z,22.70
2018-06-07T19:31:50.148Z,22.97
2018-06-07T19:34:22.884Z,20.13
2018-06-07T19:36:50.329Z,21.97
2018-06-07T19:40:20.576Z,20.63
2018-06-07T19:42:47.906Z,22.77
2018-06-07T19:45:15.268Z,23.37
2018-06-07T19:47:42.627Z,23.50
2018-06-07T19:50:09.991Z,22.77
2018-06-07T19:52:37.445Z,24.63
2018-06-07T19:55:05.262Z,26.17
2018-06-07T19:57:32.637Z,24.27
2018-06-07T19:59:59.994Z,24.77
2018-06-07T20:02:27.412Z,23.40
2018-06-07T20:04:54.849Z,24.50
2018-06-07T20:07:22.209Z,25.60
2018-06-07T20:09:49.636Z,22.50
2018-06-07T20:12:17.001Z,27.77
2018-06-07T20:14:44.323Z,25.50
2018-06-07T20:17:11.776Z,26.53
2018-06-07T20:19:39.133Z,26.80
2018-06-07T20:22:06.588Z,28.10
2018-06-07T20:24:33.918Z,25.60
2018-06-07T20:27:01.264Z,29.40
2018-06-07T20:29:28.685Z,30.00
2018-06-07T20:31:56.105Z,29.27
2018-06-07T20:34:23.465Z,29.77
2018-06-07T20:36:50.816Z,29.60
2018-06-07T20:39:18.436Z,29.13
2018-06-07T20:41:45.856Z,28.90
2018-06-07T20:44:13.229Z,31.73
2018-06-07T20:46:40.645Z,29.17
2018-06-07T20:49:08.111Z,26.40
2018-06-07T20:51:35.581Z,26.63
2018-06-07T20:54:02.968Z,28.93
2018-06-07T20:56:30.565Z,28.50
2018-06-07T20:58:58.165Z,28.07
2018-06-07T21:01:25.600Z,30.27
2018-06-07T21:03:52.964Z,31.10
2018-06-07T21:06:20.502Z,33.00
2018-06-07T21:08:47.931Z,35.20
2018-06-07T21:11:15.304Z,33.30
2018-06-07T21:13:42.718Z,34.57
2018-06-07T21:16:10.085Z,33.40
2018-06-07T21:18:37.460Z,35.70
2018-06-07T21:21:04.793Z,36.07
2018-06-07T21:23:32.270Z,37.90
2018-06-07T21:25:59.608Z,37.07
2018-06-07T21:28:27.365Z,37.57
2018-06-07T21:30:54.719Z,39.80
2018-06-07T21:33:22.088Z,36.90
2018-06-07T21:35:49.634Z,35.00
2018-06-07T21:38:17.039Z,36.03
2018-06-07T21:40:44.711Z,36.37
2018-06-07T21:43:12.169Z,38.83
2018-06-07T21:45:39.530Z,44.83
2018-06-07T21:48:06.915Z,49.33
2018-06-07T21:50:34.280Z,43.47
2018-06-07T21:53:01.670Z,45.63
2018-06-07T21:55:29.013Z,48.03
2018-06-07T21:57:56.357Z,45.97
2018-06-07T22:00:23.716Z,47.03
2018-06-07T22:02:51.139Z,49.43
2018-06-07T22:05:18.557Z,47.77
2018-06-07T22:07:45.976Z,44.13
2018-06-07T22:10:13.299Z,44.80
2018-06-07T22:12:40.669Z,45.30
2018-06-07T22:15:08.044Z,46.43
2018-06-07T22:17:35.589Z,46.20
2018-06-07T22:20:02.922Z,44.73
2018-06-07T22:22:30.636Z,44.57
2018-06-07T22:24:58.111Z,44.80
2018-06-07T22:27:25.716Z,46.20
2018-06-07T22:29:53.081Z,45.60
2018-06-07T22:32:20.415Z,44.00
2018-06-07T22:34:47.744Z,43.70
2018-06-07T22:37:15.188Z,45.80
2018-06-07T22:39:42.526Z,45.13
2018-06-07T22:42:09.918Z,47.97
2018-06-07T22:44:37.307Z,51.33
2018-06-07T22:47:04.657Z,47.27
2018-06-07T22:49:31.991Z,49.10
2018-06-07T22:51:59.368Z,48.10
2018-06-07T22:54:26.699Z,50.13
2018-06-07T22:56:54.024Z,51.10
2018-06-07T22:59:21.503Z,49.13
2018-06-07T23:01:48.855Z,51.00
2018-06-07T23:04:16.322Z,51.83
2018-06-07T23:06:43.700Z,54.40
2018-06-07T23:09:11.173Z,54.63
2018-06-07T23:11:38.504Z,55.80
2018-06-07T23:14:05.988Z,63.43
2018-06-07T23:16:33.331Z,66.30
2018-06-07T23:19:00.722Z,65.47
2018-06-07T23:21:28.200Z,57.17
2018-06-07T23:23:55.548Z,61.17
2018-06-07T23:26:22.871Z,70.23
2018-06-07T23:28:50.201Z,67.90
2018-06-07T23:31:17.535Z,62.60
2018-06-07T23:33:45.013Z,69.37
2018-06-07T23:36:12.435Z,61.13
2018-06-07T23:38:39.798Z,65.27
2018-06-07T23:41:07.146Z,82.57
2018-06-07T23:43:34.500Z,65.73
2018-06-07T23:46:01.868Z,75.40
2018-06-07T23:48:29.337Z,76.63
2018-06-07T23:50:56.647Z,69.00
2018-06-07T23:53:24.030Z,63.87
2018-06-07T23:55:51.462Z,54.90
2018-06-07T23:58:18.796Z,54.47
